sensor_id;sensor_type;location;lat;lon;timestamp;pressure;altitude;pressure_sealevel;temperature;humidity
10115;BME280;5097;43.260;27.812;2023-03-14T00:01:56;100673.16;;;1.82;77.17
10115;BME280;5097;43.260;27.812;2023-03-14T00:04:40;100640.41;;;1.52;77.45
10115;BME280;5097;43.260;27.812;2023-03-14T00:07:24;100654.25;;;1.57;77.87
10115;BME280;5097;43.260;27.812;2023-03-14T00:10:11;100648.16;;;1.58;77.89
10115;BME280;5097;43.260;27.812;2023-03-14T00:12:55;100661.09;;;1.69;77.64
10115;BME280;5097;43.260;27.812;2023-03-14T00:15:39;100649.81;;;1.68;77.41
10115;BME280;5097;43.260;27.812;2023-03-14T00:18:25;100641.28;;;1.48;77.43
10115;BME280;5097;43.260;27.812;2023-03-14T00:21:10;100642.31;;;1.27;78.19
10115;BME280;5097;43.260;27.812;2023-03-14T00:23:54;100622.38;;;1.24;78.27
10115;BME280;5097;43.260;27.812;2023-03-14T00:26:38;100644.81;;;1.38;78.83
10115;BME280;5097;43.260;27.812;2023-03-14T00:29:21;100623.09;;;1.43;78.33
10115;BME280;5097;43.260;27.812;2023-03-14T00:32:05;100624.84;;;1.41;78.83
10115;BME280;5097;43.260;27.812;2023-03-14T00:34:50;100613.56;;;1.44;78.84
10115;BME280;5097;43.260;27.812;2023-03-14T00:37:34;100578.09;;;1.26;78.62
10115;BME280;5097;43.260;27.812;2023-03-14T00:40:20;100583.25;;;1.35;78.98
10115;BME280;5097;43.260;27.812;2023-03-14T00:43:04;100589.25;;;1.45;78.82
10115;BME280;5097;43.260;27.812;2023-03-14T00:45:48;100589.25;;;1.42;78.74
10115;BME280;5097;43.260;27.812;2023-03-14T00:48:32;100539.97;;;1.22;78.35
10115;BME280;5097;43.260;27.812;2023-03-14T00:51:17;100594.31;;;1.60;78.43
10115;BME280;5097;43.260;27.812;2023-03-14T00:54:01;100584.00;;;1.49;78.01
10115;BME280;5097;43.260;27.812;2023-03-14T00:56:45;100546.94;;;1.20;78.98
10115;BME280;5097;43.260;27.812;2023-03-14T00:59:29;100570.19;;;1.40;78.57
10115;BME280;5097;43.260;27.812;2023-03-14T01:02:13;100564.13;;;1.38;79.06
10115;BME280;5097;43.260;27.812;2023-03-14T01:04:57;100571.13;;;1.34;78.88
10115;BME280;5097;43.260;27.812;2023-03-14T01:07:42;100582.34;;;1.38;79.43
10115;BME280;5097;43.260;27.812;2023-03-14T01:10:26;100546.94;;;1.18;78.92
10115;BME280;5097;43.260;27.812;2023-03-14T01:13:10;100543.53;;;1.11;78.93
10115;BME280;5097;43.260;27.812;2023-03-14T01:15:54;100524.66;;;0.81;79.71
10115;BME280;5097;43.260;27.812;2023-03-14T01:18:40;100578.19;;;1.15;79.76
10115;BME280;5097;43.260;27.812;2023-03-14T01:21:28;100579.03;;;1.20;80.07
10115;BME280;5097;43.260;27.812;2023-03-14T01:24:14;100529.72;;;1.00;80.59
10115;BME280;5097;43.260;27.812;2023-03-14T01:26:58;100572.84;;;1.32;80.17
10115;BME280;5097;43.260;27.812;2023-03-14T01:29:43;100506.41;;;0.88;79.95
10115;BME280;5097;43.260;27.812;2023-03-14T01:32:27;100565.97;;;1.23;79.96
10115;BME280;5097;43.260;27.812;2023-03-14T01:35:11;100571.09;;;1.32;79.50
10115;BME280;5097;43.260;27.812;2023-03-14T01:37:55;100580.69;;;1.30;79.79
10115;BME280;5097;43.260;27.812;2023-03-14T01:40:44;100572.00;;;1.28;79.75
10115;BME280;5097;43.260;27.812;2023-03-14T01:43:30;100561.72;;;1.10;81.04
10115;BME280;5097;43.260;27.812;2023-03-14T01:46:23;100572.13;;;1.13;80.77
10115;BME280;5097;43.260;27.812;2023-03-14T01:49:16;100571.19;;;1.22;80.52
10115;BME280;5097;43.260;27.812;2023-03-14T01:52:13;100582.34;;;1.38;80.08
10115;BME280;5097;43.260;27.812;2023-03-14T01:55:03;100573.69;;;1.39;80.35
10115;BME280;5097;43.260;27.812;2023-03-14T01:57:53;100574.69;;;1.22;80.31
10115;BME280;5097;43.260;27.812;2023-03-14T02:00:38;100532.28;;;1.08;80.42
10115;BME280;5097;43.260;27.812;2023-03-14T02:03:23;100539.97;;;1.25;80.21
10115;BME280;5097;43.260;27.812;2023-03-14T02:06:08;100544.25;;;1.30;79.58
10115;BME280;5097;43.260;27.812;2023-03-14T02:08:54;100563.34;;;1.29;79.80
10115;BME280;5097;43.260;27.812;2023-03-14T02:11:43;100563.31;;;1.32;80.07
10115;BME280;5097;43.260;27.812;2023-03-14T02:15:01;100561.53;;;1.41;79.88
10115;BME280;5097;43.260;27.812;2023-03-14T02:18:05;100571.44;;;0.86;80.60
10115;BME280;5097;43.260;27.812;2023-03-14T02:21:17;100548.19;;;0.64;81.69
10115;BME280;5097;43.260;27.812;2023-03-14T02:24:09;100578.31;;;0.93;82.05
10115;BME280;5097;43.260;27.812;2023-03-14T02:27:10;100581.75;;;1.00;82.51
10115;BME280;5097;43.260;27.812;2023-03-14T02:30:01;100570.31;;;1.24;81.43
10115;BME280;5097;43.260;27.812;2023-03-14T02:32:47;100585.00;;;1.34;80.72
10115;BME280;5097;43.260;27.812;2023-03-14T02:35:36;100578.16;;;1.21;80.53
10115;BME280;5097;43.260;27.812;2023-03-14T02:38:24;100585.06;;;1.25;80.28
10115;BME280;5097;43.260;27.812;2023-03-14T02:41:11;100583.47;;;1.07;81.69
10115;BME280;5097;43.260;27.812;2023-03-14T02:44:02;100580.88;;;1.03;81.47
10115;BME280;5097;43.260;27.812;2023-03-14T02:46:46;100588.63;;;1.12;80.75
10115;BME280;5097;43.260;27.812;2023-03-14T02:49:32;100598.06;;;1.25;80.90
10115;BME280;5097;43.260;27.812;2023-03-14T02:52:18;100570.47;;;1.01;81.30
10115;BME280;5097;43.260;27.812;2023-03-14T02:55:02;100586.06;;;1.06;81.66
10115;BME280;5097;43.260;27.812;2023-03-14T02:57:48;100526.47;;;0.70;82.25
10115;BME280;5097;43.260;27.812;2023-03-14T03:00:34;100586.84;;;1.19;81.72
10115;BME280;5097;43.260;27.812;2023-03-14T03:03:21;100587.72;;;1.21;81.93
10115;BME280;5097;43.260;27.812;2023-03-14T03:06:06;100582.56;;;1.10;81.23
10115;BME280;5097;43.260;27.812;2023-03-14T03:08:50;100569.63;;;0.97;81.19
10115;BME280;5097;43.260;27.812;2023-03-14T03:11:34;100534.31;;;0.62;82.13
10115;BME280;5097;43.260;27.812;2023-03-14T03:14:19;100580.88;;;1.03;81.51
10115;BME280;5097;43.260;27.812;2023-03-14T03:17:05;100576.56;;;1.00;81.60
10115;BME280;5097;43.260;27.812;2023-03-14T03:19:49;100543.75;;;0.76;82.08
10115;BME280;5097;43.260;27.812;2023-03-14T03:22:33;100575.66;;;1.03;81.33
10115;BME280;5097;43.260;27.812;2023-03-14T03:25:17;100557.59;;;0.81;81.63
10115;BME280;5097;43.260;27.812;2023-03-14T03:28:01;100569.66;;;0.90;81.75
10115;BME280;5097;43.260;27.812;2023-03-14T03:30:52;100558.38;;;0.92;81.84
10115;BME280;5097;43.260;27.812;2023-03-14T03:33:38;100546.22;;;1.00;81.45
10115;BME280;5097;43.260;27.812;2023-03-14T03:36:23;100540.16;;;0.98;80.98
10115;BME280;5097;43.260;27.812;2023-03-14T03:39:08;100507.41;;;0.65;81.30
10115;BME280;5097;43.260;27.812;2023-03-14T03:41:51;100561.88;;;0.88;82.24
10115;BME280;5097;43.260;27.812;2023-03-14T03:44:36;100567.03;;;1.00;82.50
10115;BME280;5097;43.260;27.812;2023-03-14T03:47:19;100546.34;;;0.77;81.42
10115;BME280;5097;43.260;27.812;2023-03-14T03:50:06;100522.25;;;0.43;81.98
10115;BME280;5097;43.260;27.812;2023-03-14T03:52:50;100539.69;;;0.22;82.57
10115;BME280;5097;43.260;27.812;2023-03-14T03:55:34;100558.66;;;0.46;83.11
10115;BME280;5097;43.260;27.812;2023-03-14T03:58:18;100556.88;;;0.60;82.84
10115;BME280;5097;43.260;27.812;2023-03-14T04:01:02;100552.47;;;0.70;82.81
10115;BME280;5097;43.260;27.812;2023-03-14T04:03:46;100554.16;;;0.77;82.98
10115;BME280;5097;43.260;27.812;2023-03-14T04:06:32;100536.88;;;0.69;83.20
10115;BME280;5097;43.260;27.812;2023-03-14T04:09:16;100544.69;;;0.65;82.35
10115;BME280;5097;43.260;27.812;2023-03-14T04:12:15;100542.22;;;0.36;82.73
10115;BME280;5097;43.260;27.812;2023-03-14T04:15:28;100531.84;;;0.39;83.61
10115;BME280;5097;43.260;27.812;2023-03-14T04:18:16;100551.63;;;0.63;83.23
10115;BME280;5097;43.260;27.812;2023-03-14T04:21:00;100555.00;;;0.82;82.59
10115;BME280;5097;43.260;27.812;2023-03-14T04:23:55;100542.00;;;0.76;82.73
10115;BME280;5097;43.260;27.812;2023-03-14T04:26:43;100555.00;;;0.76;82.84
10115;BME280;5097;43.260;27.812;2023-03-14T04:29:27;100548.94;;;0.82;82.83
10115;BME280;5097;43.260;27.812;2023-03-14T04:32:11;100549.75;;;0.89;82.26
10115;BME280;5097;43.260;27.812;2023-03-14T04:34:55;100551.53;;;0.79;82.52
10115;BME280;5097;43.260;27.812;2023-03-14T04:37:39;100546.50;;;0.54;83.10
10115;BME280;5097;43.260;27.812;2023-03-14T04:40:26;100551.69;;;0.54;83.24
10115;BME280;5097;43.260;27.812;2023-03-14T04:43:16;100547.28;;;0.69;82.97
10115;BME280;5097;43.260;27.812;2023-03-14T04:46:05;100548.03;;;0.86;82.88
10115;BME280;5097;43.260;27.812;2023-03-14T04:48:50;100546.31;;;0.85;83.52
10115;BME280;5097;43.260;27.812;2023-03-14T04:51:34;100502.19;;;0.73;82.19
10115;BME280;5097;43.260;27.812;2023-03-14T04:54:18;100543.63;;;0.96;83.49
10115;BME280;5097;43.260;27.812;2023-03-14T04:57:07;100540.88;;;1.16;83.31
10115;BME280;5097;43.260;27.812;2023-03-14T04:59:53;100533.88;;;1.27;82.64
10115;BME280;5097;43.260;27.812;2023-03-14T05:02:57;100539.06;;;1.27;81.74
10115;BME280;5097;43.260;27.812;2023-03-14T05:05:44;100517.44;;;1.17;81.82
10115;BME280;5097;43.260;27.812;2023-03-14T05:08:35;100538.97;;;1.40;81.61
10115;BME280;5097;43.260;27.812;2023-03-14T05:11:37;100543.09;;;1.59;81.10
10115;BME280;5097;43.260;27.812;2023-03-14T05:14:37;100549.09;;;1.71;81.71
10115;BME280;5097;43.260;27.812;2023-03-14T05:17:53;100555.00;;;1.88;80.40
10115;BME280;5097;43.260;27.812;2023-03-14T05:20:56;100544.50;;;1.96;80.34
10115;BME280;5097;43.260;27.812;2023-03-14T05:24:02;100553.06;;;2.06;81.13
10115;BME280;5097;43.260;27.812;2023-03-14T05:27:06;100553.78;;;2.20;79.78
10115;BME280;5097;43.260;27.812;2023-03-14T05:29:54;100548.28;;;2.42;79.61
10115;BME280;5097;43.260;27.812;2023-03-14T05:32:50;100555.25;;;2.41;79.64
10115;BME280;5097;43.260;27.812;2023-03-14T05:35:57;100507.41;;;2.42;79.51
10115;BME280;5097;43.260;27.812;2023-03-14T05:39:00;100534.53;;;2.93;78.81
10115;BME280;5097;43.260;27.812;2023-03-14T05:42:19;100488.66;;;2.78;78.68
10115;BME280;5097;43.260;27.812;2023-03-14T05:45:27;100542.78;;;3.21;78.20
10115;BME280;5097;43.260;27.812;2023-03-14T05:48:40;100527.09;;;3.24;78.27
10115;BME280;5097;43.260;27.812;2023-03-14T05:51:47;100535.47;;;3.43;77.81
10115;BME280;5097;43.260;27.812;2023-03-14T05:54:53;100533.97;;;3.80;76.71
10115;BME280;5097;43.260;27.812;2023-03-14T05:57:57;100527.56;;;3.95;75.38
10115;BME280;5097;43.260;27.812;2023-03-14T06:00:55;100509.03;;;4.09;75.20
10115;BME280;5097;43.260;27.812;2023-03-14T06:03:56;100524.25;;;4.30;74.49
10115;BME280;5097;43.260;27.812;2023-03-14T06:06:40;100532.41;;;4.57;74.20
10115;BME280;5097;43.260;27.812;2023-03-14T06:09:26;100519.34;;;4.57;73.08
10115;BME280;5097;43.260;27.812;2023-03-14T06:12:12;100532.81;;;4.78;72.29
10115;BME280;5097;43.260;27.812;2023-03-14T06:14:58;100537.69;;;4.95;72.02
10115;BME280;5097;43.260;27.812;2023-03-14T06:17:45;100541.59;;;5.13;71.70
10115;BME280;5097;43.260;27.812;2023-03-14T06:20:31;100546.59;;;5.24;70.65
10115;BME280;5097;43.260;27.812;2023-03-14T06:23:15;100537.75;;;5.29;70.77
10115;BME280;5097;43.260;27.812;2023-03-14T06:25:59;100552.53;;;5.32;71.10
10115;BME280;5097;43.260;27.812;2023-03-14T06:28:45;100542.66;;;5.42;71.42
10115;BME280;5097;43.260;27.812;2023-03-14T06:31:29;100538.91;;;5.52;70.47
10115;BME280;5097;43.260;27.812;2023-03-14T06:34:18;100537.66;;;5.67;70.02
10115;BME280;5097;43.260;27.812;2023-03-14T06:37:02;100524.50;;;5.68;70.15
10115;BME280;5097;43.260;27.812;2023-03-14T06:39:46;100538.03;;;5.86;69.76
10115;BME280;5097;43.260;27.812;2023-03-14T06:42:46;100545.06;;;5.84;69.57
10115;BME280;5097;43.260;27.812;2023-03-14T06:45:32;100510.13;;;5.83;68.76
10115;BME280;5097;43.260;27.812;2023-03-14T06:48:17;100528.94;;;5.99;68.24
10115;BME280;5097;43.260;27.812;2023-03-14T06:51:08;100525.75;;;5.88;68.35
10115;BME280;5097;43.260;27.812;2023-03-14T06:53:52;100523.31;;;6.13;68.35
10115;BME280;5097;43.260;27.812;2023-03-14T06:56:39;100482.88;;;5.89;67.59
10115;BME280;5097;43.260;27.812;2023-03-14T06:59:25;100521.28;;;6.23;67.93
10115;BME280;5097;43.260;27.812;2023-03-14T07:02:10;100512.75;;;6.16;67.71
10115;BME280;5097;43.260;27.812;2023-03-14T07:04:55;100506.00;;;6.37;67.54
10115;BME280;5097;43.260;27.812;2023-03-14T07:07:41;100510.72;;;6.26;66.65
10115;BME280;5097;43.260;27.812;2023-03-14T07:10:25;100488.19;;;6.19;66.30
10115;BME280;5097;43.260;27.812;2023-03-14T07:13:09;100470.63;;;6.21;66.98
10115;BME280;5097;43.260;27.812;2023-03-14T07:16:19;100493.59;;;6.43;66.35
10115;BME280;5097;43.260;27.812;2023-03-14T07:19:03;100501.91;;;6.57;66.46
10115;BME280;5097;43.260;27.812;2023-03-14T07:21:47;100501.41;;;6.74;66.54
10115;BME280;5097;43.260;27.812;2023-03-14T07:24:38;100495.09;;;6.80;65.96
10115;BME280;5097;43.260;27.812;2023-03-14T07:27:22;100504.31;;;6.93;65.21
10115;BME280;5097;43.260;27.812;2023-03-14T07:30:07;100504.13;;;6.99;64.51
10115;BME280;5097;43.260;27.812;2023-03-14T07:32:51;100469.38;;;6.90;64.74
10115;BME280;5097;43.260;27.812;2023-03-14T07:35:38;100470.44;;;6.84;64.16
10115;BME280;5097;43.260;27.812;2023-03-14T07:38:23;100488.78;;;7.12;64.03
10115;BME280;5097;43.260;27.812;2023-03-14T07:41:27;100475.47;;;7.18;62.75
10115;BME280;5097;43.260;27.812;2023-03-14T07:44:30;100493.78;;;7.47;62.38
10115;BME280;5097;43.260;27.812;2023-03-14T07:47:14;100455.22;;;7.22;62.27
10115;BME280;5097;43.260;27.812;2023-03-14T07:49:58;100491.63;;;7.58;62.17
10115;BME280;5097;43.260;27.812;2023-03-14T07:52:42;100479.03;;;7.68;61.71
10115;BME280;5097;43.260;27.812;2023-03-14T07:55:27;100436.41;;;7.58;60.92
10115;BME280;5097;43.260;27.812;2023-03-14T07:58:12;100394.06;;;7.42;60.46
10115;BME280;5097;43.260;27.812;2023-03-14T08:00:58;100473.41;;;8.02;60.22
10115;BME280;5097;43.260;27.812;2023-03-14T08:03:42;100460.16;;;8.28;60.97
10115;BME280;5097;43.260;27.812;2023-03-14T08:06:26;100462.56;;;8.12;59.82
10115;BME280;5097;43.260;27.812;2023-03-14T08:09:11;100449.59;;;8.29;59.64
10115;BME280;5097;43.260;27.812;2023-03-14T08:11:55;100454.75;;;8.32;59.61
10115;BME280;5097;43.260;27.812;2023-03-14T08:14:41;100419.91;;;8.02;59.23
10115;BME280;5097;43.260;27.812;2023-03-14T08:17:25;100382.25;;;8.01;59.11
10115;BME280;5097;43.260;27.812;2023-03-14T08:20:11;100444.38;;;8.74;58.36
10115;BME280;5097;43.260;27.812;2023-03-14T08:22:56;100406.28;;;8.60;58.36
10115;BME280;5097;43.260;27.812;2023-03-14T08:25:40;100443.22;;;8.81;58.02
10115;BME280;5097;43.260;27.812;2023-03-14T08:28:25;100408.50;;;8.49;57.91
10115;BME280;5097;43.260;27.812;2023-03-14T08:31:14;100415.34;;;8.53;58.63
10115;BME280;5097;43.260;27.812;2023-03-14T08:33:59;100447.56;;;8.82;58.80
10115;BME280;5097;43.260;27.812;2023-03-14T08:36:43;100442.00;;;8.67;58.76
10115;BME280;5097;43.260;27.812;2023-03-14T08:39:27;100435.44;;;8.78;58.69
10115;BME280;5097;43.260;27.812;2023-03-14T08:42:11;100430.13;;;9.00;58.22
10115;BME280;5097;43.260;27.812;2023-03-14T08:44:55;100357.31;;;8.56;58.98
10115;BME280;5097;43.260;27.812;2023-03-14T08:47:41;100372.09;;;9.01;57.78
10115;BME280;5097;43.260;27.812;2023-03-14T08:50:25;100411.59;;;8.81;56.70
10115;BME280;5097;43.260;27.812;2023-03-14T08:53:09;100387.66;;;8.43;57.75
10115;BME280;5097;43.260;27.812;2023-03-14T08:55:54;100412.66;;;8.97;56.25
10115;BME280;5097;43.260;27.812;2023-03-14T08:58:38;100409.44;;;9.32;55.64
10115;BME280;5097;43.260;27.812;2023-03-14T09:01:23;100403.44;;;8.87;54.96
10115;BME280;5097;43.260;27.812;2023-03-14T09:04:10;100384.59;;;9.37;54.70
10115;BME280;5097;43.260;27.812;2023-03-14T09:06:54;100398.78;;;9.75;53.78
10115;BME280;5097;43.260;27.812;2023-03-14T09:09:38;100392.34;;;9.61;52.77
10115;BME280;5097;43.260;27.812;2023-03-14T09:12:21;100395.94;;;9.39;52.66
10115;BME280;5097;43.260;27.812;2023-03-14T09:15:06;100398.09;;;9.50;53.18
10115;BME280;5097;43.260;27.812;2023-03-14T09:17:50;100389.72;;;9.80;51.94
10115;BME280;5097;43.260;27.812;2023-03-14T09:20:35;100384.06;;;9.50;52.61
10115;BME280;5097;43.260;27.812;2023-03-14T09:23:19;100389.75;;;9.41;51.59
10115;BME280;5097;43.260;27.812;2023-03-14T09:26:03;100385.25;;;9.43;51.46
10115;BME280;5097;43.260;27.812;2023-03-14T09:28:47;100378.75;;;9.70;51.51
10115;BME280;5097;43.260;27.812;2023-03-14T09:31:31;100381.47;;;9.48;51.61
10115;BME280;5097;43.260;27.812;2023-03-14T09:34:15;100372.47;;;9.33;51.21
10115;BME280;5097;43.260;27.812;2023-03-14T09:37:01;100325.41;;;9.45;52.02
10115;BME280;5097;43.260;27.812;2023-03-14T09:39:45;100366.78;;;10.01;50.53
10115;BME280;5097;43.260;27.812;2023-03-14T09:42:28;100368.78;;;9.37;51.65
10115;BME280;5097;43.260;27.812;2023-03-14T09:45:17;100378.00;;;9.48;52.77
10115;BME280;5097;43.260;27.812;2023-03-14T09:48:05;100368.69;;;9.79;50.29
10115;BME280;5097;43.260;27.812;2023-03-14T09:50:51;100362.19;;;10.24;49.11
10115;BME280;5097;43.260;27.812;2023-03-14T09:53:40;100366.06;;;10.36;47.27
10115;BME280;5097;43.260;27.812;2023-03-14T09:56:26;100350.72;;;9.68;50.07
10115;BME280;5097;43.260;27.812;2023-03-14T09:59:12;100350.44;;;9.93;49.85
10115;BME280;5097;43.260;27.812;2023-03-14T10:01:58;100349.47;;;10.32;48.57
10115;BME280;5097;43.260;27.812;2023-03-14T10:04:45;100342.31;;;10.53;47.20
10115;BME280;5097;43.260;27.812;2023-03-14T10:07:30;100346.44;;;10.77;45.45
10115;BME280;5097;43.260;27.812;2023-03-14T10:10:19;100341.22;;;10.21;47.96
10115;BME280;5097;43.260;27.812;2023-03-14T10:13:14;100338.56;;;10.21;50.08
10115;BME280;5097;43.260;27.812;2023-03-14T10:16:00;100325.22;;;10.24;47.87
10115;BME280;5097;43.260;27.812;2023-03-14T10:18:45;100334.47;;;10.52;46.10
10115;BME280;5097;43.260;27.812;2023-03-14T10:21:30;100320.25;;;10.72;45.30
10115;BME280;5097;43.260;27.812;2023-03-14T10:24:20;100313.97;;;10.75;44.59
10115;BME280;5097;43.260;27.812;2023-03-14T10:27:18;100304.16;;;10.77;44.23
10115;BME280;5097;43.260;27.812;2023-03-14T10:30:05;100309.97;;;10.83;46.52
10115;BME280;5097;43.260;27.812;2023-03-14T10:32:50;100308.69;;;10.75;47.93
10115;BME280;5097;43.260;27.812;2023-03-14T10:35:34;100308.13;;;10.31;50.34
10115;BME280;5097;43.260;27.812;2023-03-14T10:38:18;100288.84;;;10.83;48.41
10115;BME280;5097;43.260;27.812;2023-03-14T10:41:15;100297.94;;;10.78;48.07
10115;BME280;5097;43.260;27.812;2023-03-14T10:44:01;100284.41;;;10.49;49.63
10115;BME280;5097;43.260;27.812;2023-03-14T10:46:45;100276.97;;;10.39;50.19
10115;BME280;5097;43.260;27.812;2023-03-14T10:49:40;100279.19;;;11.00;47.51
10115;BME280;5097;43.260;27.812;2023-03-14T10:52:25;100271.63;;;11.10;46.87
10115;BME280;5097;43.260;27.812;2023-03-14T10:55:26;100255.13;;;11.38;45.87
10115;BME280;5097;43.260;27.812;2023-03-14T10:58:25;100254.22;;;10.54;47.30
10115;BME280;5097;43.260;27.812;2023-03-14T11:01:22;100244.72;;;10.68;46.29
10115;BME280;5097;43.260;27.812;2023-03-14T11:04:17;100246.31;;;11.21;45.63
10115;BME280;5097;43.260;27.812;2023-03-14T11:07:11;100238.72;;;11.31;43.86
10115;BME280;5097;43.260;27.812;2023-03-14T11:10:00;100211.91;;;11.05;44.47
10115;BME280;5097;43.260;27.812;2023-03-14T11:12:52;100053.34;;;9.71;43.81
10115;BME280;5097;43.260;27.812;2023-03-14T11:15:41;100190.25;;;10.99;43.52
10115;BME280;5097;43.260;27.812;2023-03-14T11:19:16;100201.28;;;11.23;42.59
10115;BME280;5097;43.260;27.812;2023-03-14T11:22:12;100189.78;;;11.24;42.66
10115;BME280;5097;43.260;27.812;2023-03-14T11:25:15;100190.09;;;11.18;43.16
10115;BME280;5097;43.260;27.812;2023-03-14T11:28:09;100181.06;;;11.38;41.60
10115;BME280;5097;43.260;27.812;2023-03-14T11:31:03;100146.69;;;11.22;41.88
10115;BME280;5097;43.260;27.812;2023-03-14T11:33:56;100177.56;;;11.53;41.25
10115;BME280;5097;43.260;27.812;2023-03-14T11:36:46;100157.59;;;11.48;41.62
10115;BME280;5097;43.260;27.812;2023-03-14T11:39:38;100145.47;;;11.28;41.54
10115;BME280;5097;43.260;27.812;2023-03-14T11:42:23;100146.66;;;10.90;42.94
10115;BME280;5097;43.260;27.812;2023-03-14T11:45:15;100139.72;;;10.55;41.86
10115;BME280;5097;43.260;27.812;2023-03-14T11:48:14;100145.69;;;10.75;41.24
10115;BME280;5097;43.260;27.812;2023-03-14T11:51:02;100134.66;;;11.00;41.49
10115;BME280;5097;43.260;27.812;2023-03-14T11:53:55;100136.66;;;10.79;42.80
10115;BME280;5097;43.260;27.812;2023-03-14T11:56:46;100136.38;;;11.49;40.63
10115;BME280;5097;43.260;27.812;2023-03-14T11:59:40;100086.97;;;10.86;41.43
10115;BME280;5097;43.260;27.812;2023-03-14T12:02:31;100100.94;;;10.56;42.22
10115;BME280;5097;43.260;27.812;2023-03-14T12:05:43;100110.78;;;11.18;40.28
10115;BME280;5097;43.260;27.812;2023-03-14T12:08:43;100077.19;;;11.20;39.29
10115;BME280;5097;43.260;27.812;2023-03-14T12:11:40;100098.66;;;10.82;40.30
10115;BME280;5097;43.260;27.812;2023-03-14T12:14:27;100095.22;;;11.44;38.15
10115;BME280;5097;43.260;27.812;2023-03-14T12:17:20;100081.25;;;10.78;37.66
10115;BME280;5097;43.260;27.812;2023-03-14T12:20:15;100053.56;;;11.01;36.46
10115;BME280;5097;43.260;27.812;2023-03-14T12:23:02;100071.69;;;11.39;36.09
10115;BME280;5097;43.260;27.812;2023-03-14T12:25:47;100067.84;;;11.29;36.61
10115;BME280;5097;43.260;27.812;2023-03-14T12:28:52;100071.72;;;10.91;36.50
10115;BME280;5097;43.260;27.812;2023-03-14T12:32:23;100066.84;;;11.31;35.85
10115;BME280;5097;43.260;27.812;2023-03-14T12:35:34;100054.25;;;11.51;33.04
10115;BME280;5097;43.260;27.812;2023-03-14T12:38:24;100048.84;;;11.22;32.46
10115;BME280;5097;43.260;27.812;2023-03-14T12:41:16;100045.56;;;11.49;33.09
10115;BME280;5097;43.260;27.812;2023-03-14T12:47:53;100037.00;;;11.29;32.88
10115;BME280;5097;43.260;27.812;2023-03-14T12:50:42;100028.59;;;11.06;35.82
10115;BME280;5097;43.260;27.812;2023-03-14T12:57:09;100012.59;;;11.54;36.14
10115;BME280;5097;43.260;27.812;2023-03-14T12:59:56;99977.84;;;11.30;33.82
10115;BME280;5097;43.260;27.812;2023-03-14T13:02:42;100002.97;;;11.68;34.51
10115;BME280;5097;43.260;27.812;2023-03-14T13:05:29;100003.41;;;11.15;36.70
10115;BME280;5097;43.260;27.812;2023-03-14T13:08:13;100001.72;;;10.98;37.80
10115;BME280;5097;43.260;27.812;2023-03-14T13:10:57;100009.81;;;10.63;36.68
10115;BME280;5097;43.260;27.812;2023-03-14T13:13:45;100000.28;;;10.45;37.69
10115;BME280;5097;43.260;27.812;2023-03-14T13:16:30;99997.72;;;10.43;39.46
10115;BME280;5097;43.260;27.812;2023-03-14T13:19:18;100000.97;;;10.64;38.87
10115;BME280;5097;43.260;27.812;2023-03-14T13:22:06;99998.91;;;11.01;39.78
10115;BME280;5097;43.260;27.812;2023-03-14T13:24:59;99996.81;;;10.76;40.38
10115;BME280;5097;43.260;27.812;2023-03-14T13:27:44;99988.06;;;10.26;41.21
10115;BME280;5097;43.260;27.812;2023-03-14T13:30:35;99993.50;;;9.89;44.09
10115;BME280;5097;43.260;27.812;2023-03-14T13:33:22;99989.13;;;10.22;43.29
10115;BME280;5097;43.260;27.812;2023-03-14T13:36:06;99955.41;;;10.27;43.16
10115;BME280;5097;43.260;27.812;2023-03-14T13:38:57;99978.84;;;9.84;44.99
10115;BME280;5097;43.260;27.812;2023-03-14T13:41:42;99966.38;;;10.37;45.77
10115;BME280;5097;43.260;27.812;2023-03-14T13:44:27;99966.22;;;10.40;44.43
10115;BME280;5097;43.260;27.812;2023-03-14T13:47:15;99916.53;;;10.47;43.36
10115;BME280;5097;43.260;27.812;2023-03-14T13:50:00;99955.41;;;10.27;45.59
10115;BME280;5097;43.260;27.812;2023-03-14T13:52:44;99945.88;;;10.24;47.49
10115;BME280;5097;43.260;27.812;2023-03-14T13:55:30;99945.03;;;10.24;48.71
10115;BME280;5097;43.260;27.812;2023-03-14T13:58:21;99939.88;;;10.54;47.77
10115;BME280;5097;43.260;27.812;2023-03-14T14:01:10;99943.81;;;10.14;46.56
10115;BME280;5097;43.260;27.812;2023-03-14T14:03:57;99937.16;;;9.90;48.65
10115;BME280;5097;43.260;27.812;2023-03-14T14:06:45;99931.41;;;10.16;47.92
10115;BME280;5097;43.260;27.812;2023-03-14T14:09:37;99929.50;;;9.52;48.59
10115;BME280;5097;43.260;27.812;2023-03-14T14:12:26;99937.47;;;8.98;52.68
10115;BME280;5097;43.260;27.812;2023-03-14T14:15:14;99923.53;;;9.31;51.75
10115;BME280;5097;43.260;27.812;2023-03-14T14:18:03;99881.69;;;8.90;53.16
10115;BME280;5097;43.260;27.812;2023-03-14T14:20:48;99913.59;;;9.54;51.96
10115;BME280;5097;43.260;27.812;2023-03-14T14:23:33;99915.13;;;9.58;51.59
10115;BME280;5097;43.260;27.812;2023-03-14T14:26:19;99916.75;;;9.61;51.05
10115;BME280;5097;43.260;27.812;2023-03-14T14:29:05;99922.47;;;8.64;53.81
10115;BME280;5097;43.260;27.812;2023-03-14T14:31:59;99911.50;;;8.91;53.91
10115;BME280;5097;43.260;27.812;2023-03-14T14:34:45;99906.81;;;8.42;56.51
10115;BME280;5097;43.260;27.812;2023-03-14T14:37:33;99911.09;;;8.63;56.36
10115;BME280;5097;43.260;27.812;2023-03-14T14:40:20;99881.03;;;8.12;57.95
10115;BME280;5097;43.260;27.812;2023-03-14T14:43:05;99898.38;;;8.54;57.87
10115;BME280;5097;43.260;27.812;2023-03-14T14:45:52;99895.84;;;9.05;57.16
10115;BME280;5097;43.260;27.812;2023-03-14T14:48:37;99861.84;;;9.00;56.80
10115;BME280;5097;43.260;27.812;2023-03-14T14:51:26;99901.88;;;9.42;55.43
10115;BME280;5097;43.260;27.812;2023-03-14T14:54:16;99901.28;;;9.02;57.24
10115;BME280;5097;43.260;27.812;2023-03-14T14:57:03;99893.31;;;9.03;58.50
10115;BME280;5097;43.260;27.812;2023-03-14T14:59:49;99879.56;;;8.62;59.67
10115;BME280;5097;43.260;27.812;2023-03-14T15:02:38;99887.13;;;8.87;59.01